Time;durP1;ratioP1;P1;durP2;ratioP2;P2;SDS_P1;SDS_P2;PMS_P1;PMS_P2;Temp;Humidity;BMP_temperature;BMP_pressure;BME280_temperature;BME280_humidity;BME280_pressure;Samples;Min_cycle;Max_cycle;Signal;HPM_P1;HPM_P2
2024/03/15 00:00:18;;;;;;;5.32;2.65;;;;;;;10.50;72.04;96308.94;4945841;29;20086;-81
2024/03/15 00:02:47;;;;;;;2.97;2.70;;;;;;;10.50;72.75;96316.75;4949313;29;20051;-81
2024/03/15 00:05:15;;;;;;;3.33;3.03;;;;;;;10.46;71.61;96312.91;4948120;29;20051;-81
2024/03/15 00:07:46;;;;;;;3.63;2.53;;;;;;;10.43;71.39;96321.09;4948005;29;20086;-80
2024/03/15 00:10:14;;;;;;;3.58;2.95;;;;;;;10.45;72.71;96321.72;4947405;29;20131;-84
2024/03/15 00:12:43;;;;;;;4.43;3.35;;;;;;;10.48;72.68;96318.75;4947367;29;20514;-80
2024/03/15 00:15:11;;;;;;;3.03;2.67;;;;;;;10.43;71.56;96327.16;4946950;29;20118;-80
2024/03/15 00:17:39;;;;;;;2.95;2.72;;;;;;;10.37;71.28;96329.69;4946359;29;20055;-82
2024/03/15 00:20:07;;;;;;;4.35;2.90;;;;;;;10.30;71.27;96325.22;4945773;29;20126;-83
2024/03/15 00:22:36;;;;;;;5.53;2.88;;;;;;;10.23;71.08;96316.50;4945222;28;20087;-78
2024/03/15 00:25:04;;;;;;;5.15;2.60;;;;;;;10.20;71.23;96318.66;4945459;29;20136;-78
2024/03/15 00:27:32;;;;;;;4.75;2.90;;;;;;;10.18;71.75;96318.03;4944629;29;20496;-82
2024/03/15 00:30:00;;;;;;;5.88;2.67;;;;;;;10.18;71.62;96324.06;4943655;29;20057;-78
2024/03/15 00:32:28;;;;;;;6.53;2.78;;;;;;;10.18;72.29;96315.44;4943271;29;20082;-80
2024/03/15 00:34:56;;;;;;;6.35;2.83;;;;;;;10.16;71.78;96323.44;4942753;28;20078;-79
2024/03/15 00:37:24;;;;;;;5.03;2.90;;;;;;;10.15;71.87;96316.63;4943479;29;20055;-79
2024/03/15 00:39:52;;;;;;;4.28;2.20;;;;;;;10.15;72.29;96318.44;4942893;29;20495;-83
2024/03/15 00:42:20;;;;;;;5.63;2.80;;;;;;;10.13;72.60;96316.00;4947615;29;20051;-80
2024/03/15 00:44:48;;;;;;;4.18;2.80;;;;;;;10.10;72.02;96313.75;4949183;29;20054;-83
2024/03/15 00:47:16;;;;;;;3.05;2.55;;;;;;;10.04;71.85;96311.91;4950430;29;20061;-85
2024/03/15 00:49:44;;;;;;;4.65;2.58;;;;;;;10.01;72.07;96314.88;4948937;29;20079;-83
2024/03/15 00:52:12;;;;;;;3.17;2.60;;;;;;;10.01;71.85;96312.25;4949172;29;20051;-81
2024/03/15 00:54:40;;;;;;;3.78;3.00;;;;;;;9.96;71.74;96309.41;4949070;29;20047;-83
2024/03/15 00:57:08;;;;;;;5.43;2.75;;;;;;;9.90;71.90;96311.78;4951504;29;20051;-82
2024/03/15 00:59:36;;;;;;;5.30;3.05;;;;;;;9.84;71.99;96304.69;4950752;29;20503;-80
2024/03/15 01:02:04;;;;;;;3.30;2.50;;;;;;;9.80;72.25;96307.84;4950180;29;20055;-78
2024/03/15 01:04:32;;;;;;;3.13;2.58;;;;;;;9.78;72.34;96305.41;4951872;29;20132;-82
2024/03/15 01:07:00;;;;;;;2.97;2.58;;;;;;;9.76;72.36;96310.00;4952614;29;20051;-81
2024/03/15 01:09:29;;;;;;;2.83;2.17;;;;;;;9.74;72.33;96305.97;4952287;29;20084;-81
2024/03/15 01:11:57;;;;;;;2.47;2.03;;;;;;;9.71;72.39;96301.94;4951542;29;20090;-81
2024/03/15 01:14:25;;;;;;;5.28;2.15;;;;;;;9.70;72.32;96297.69;4950975;28;20300;-80
2024/03/15 01:16:53;;;;;;;5.72;3.00;;;;;;;9.68;72.36;96295.28;4949777;29;20051;-80
2024/03/15 01:19:21;;;;;;;3.13;2.67;;;;;;;9.66;72.33;96293.84;4949094;29;20051;-81
2024/03/15 01:21:49;;;;;;;6.35;3.08;;;;;;;9.62;72.40;96297.81;4947716;29;20051;-78
2024/03/15 01:24:17;;;;;;;3.47;2.80;;;;;;;9.59;72.41;96291.16;4946656;29;20054;-79
2024/03/15 01:26:45;;;;;;;3.75;2.75;;;;;;;9.57;72.45;96290.53;4947242;29;20058;-81
2024/03/15 01:29:12;;;;;;;4.95;2.50;;;;;;;9.53;72.44;96285.88;4946758;29;20054;-78
2024/03/15 01:31:40;;;;;;;4.28;2.70;;;;;;;9.52;72.61;96287.69;4946911;29;20125;-84
2024/03/15 01:34:12;;;;;;;4.85;2.60;;;;;;;9.48;72.62;96284.63;4946127;29;20074;-84
2024/03/15 01:36:40;;;;;;;5.72;2.70;;;;;;;9.48;72.94;96282.03;4945386;29;20101;-86
2024/03/15 01:39:08;;;;;;;4.32;2.80;;;;;;;9.49;72.58;96283.66;4946090;29;20051;-89
2024/03/15 01:41:36;;;;;;;4.75;2.75;;;;;;;9.50;72.76;96279.25;4945725;28;20051;-83
2024/03/15 01:44:04;;;;;;;3.13;2.72;;;;;;;9.52;72.79;96281.69;4947049;29;20071;-85
2024/03/15 01:46:32;;;;;;;4.90;2.47;;;;;;;9.51;72.75;96280.06;4946587;29;20114;-85
2024/03/15 01:49:00;;;;;;;4.97;3.17;;;;;;;9.49;72.76;96281.06;4947061;29;20300;-88
2024/03/15 01:51:30;;;;;;;5.53;3.33;;;;;;;9.46;72.80;96291.00;4947920;29;20062;-84
2024/03/15 01:54:00;;;;;;;4.28;2.60;;;;;;;9.44;72.81;96287.78;4946844;28;20063;-84
2024/03/15 01:56:28;;;;;;;4.97;2.70;;;;;;;9.41;72.86;96285.56;4946959;29;20055;-86
2024/03/15 01:58:55;;;;;;;5.60;3.05;;;;;;;9.39;73.04;96277.91;4946603;29;20051;-84
2024/03/15 02:01:23;;;;;;;3.92;2.83;;;;;;;9.37;72.68;96279.91;4946774;29;20055;-85
2024/03/15 02:03:52;;;;;;;5.20;3.22;;;;;;;9.34;72.76;96282.06;4946969;29;20047;-86
2024/03/15 02:06:21;;;;;;;4.18;2.70;;;;;;;9.29;72.75;96282.59;4946106;29;20079;-79
2024/03/15 02:08:49;;;;;;;4.90;2.30;;;;;;;9.26;72.70;96282.97;4948082;29;20051;-84
2024/03/15 02:11:17;;;;;;;2.97;2.05;;;;;;;9.23;72.63;96281.53;4947668;29;20500;-80
2024/03/15 02:13:45;;;;;;;4.18;2.40;;;;;;;9.20;72.99;96284.47;4946262;29;20058;-80
2024/03/15 02:16:14;;;;;;;4.40;2.22;;;;;;;9.22;73.13;96284.31;4945425;29;20051;-80
2024/03/15 02:18:43;;;;;;;3.90;2.50;;;;;;;9.23;73.12;96288.53;4946360;29;20050;-79
2024/03/15 02:21:11;;;;;;;4.95;2.80;;;;;;;9.22;73.01;96281.72;4946333;28;20083;-79
2024/03/15 02:23:41;;;;;;;3.80;2.42;;;;;;;9.20;73.07;96286.28;4947223;29;20475;-79
2024/03/15 02:26:09;;;;;;;2.53;2.25;;;;;;;9.18;72.97;96286.50;4946295;29;20059;-79
2024/03/15 02:28:38;;;;;;;4.32;2.50;;;;;;;9.18;73.17;96275.25;4946157;29;20062;-81
2024/03/15 02:31:06;;;;;;;2.90;2.35;;;;;;;9.18;73.01;96281.28;4946193;29;20571;-81
2024/03/15 02:33:34;;;;;;;4.35;2.30;;;;;;;9.16;72.95;96292.84;4945522;29;20401;-79
2024/03/15 02:36:02;;;;;;;2.83;2.40;;;;;;;9.15;73.02;96281.63;4945867;29;20059;-79
2024/03/15 02:38:30;;;;;;;5.95;2.25;;;;;;;9.13;72.92;96283.59;4945188;29;20051;-79
2024/03/15 02:40:58;;;;;;;3.13;2.67;;;;;;;9.14;73.00;96281.78;4945552;29;20059;-84
2024/03/15 02:43:28;;;;;;;3.72;2.30;;;;;;;9.13;73.25;96282.78;4945756;29;20138;-82
2024/03/15 02:45:56;;;;;;;4.45;2.65;;;;;;;9.11;72.90;96284.78;4944424;29;20051;-79
2024/03/15 02:48:24;;;;;;;4.70;2.47;;;;;;;9.11;72.96;96284.78;4945170;29;20062;-82
2024/03/15 02:50:52;;;;;;;4.53;2.65;;;;;;;9.11;73.10;96292.56;4945258;29;20107;-82
2024/03/15 02:53:20;;;;;;;3.75;2.50;;;;;;;9.11;73.03;96289.97;4944929;29;20109;-80
2024/03/15 02:55:49;;;;;;;5.22;2.25;;;;;;;9.11;73.08;96292.56;4948239;29;20051;-85
2024/03/15 02:58:18;;;;;;;4.85;2.40;;;;;;;9.11;73.18;96289.97;4948030;29;20051;-84
2024/03/15 03:06:03;;;;;;;4.22;2.33;;;;;;;9.06;73.20;96291.31;5592339;23;20104;-81
2024/03/15 03:08:31;;;;;;;4.93;2.17;;;;;;;9.08;74.70;96291.94;4963803;28;20066;-81
2024/03/15 03:10:59;;;;;;;3.58;2.35;;;;;;;9.14;74.09;96294.81;4959725;28;20055;-80
2024/03/15 03:13:27;;;;;;;4.43;2.60;;;;;;;9.12;73.52;96291.56;4958689;28;20059;-80
2024/03/15 03:15:55;;;;;;;5.25;2.70;;;;;;;9.13;73.27;96293.22;4957682;28;20051;-80
2024/03/15 03:18:23;;;;;;;2.58;1.98;;;;;;;9.15;73.54;96296.44;4957123;28;20057;-81
2024/03/15 03:20:50;;;;;;;2.92;2.45;;;;;;;9.18;75.17;96296.06;4958082;28;20078;-81
2024/03/15 03:23:18;;;;;;;3.30;2.25;;;;;;;9.26;76.11;96293.38;4957664;28;20121;-81
2024/03/15 03:25:47;;;;;;;3.38;2.10;;;;;;;9.32;75.39;96297.88;4957473;28;20051;-81
2024/03/15 03:28:15;;;;;;;4.10;2.33;;;;;;;9.35;74.07;96299.28;4957856;28;20070;-81
2024/03/15 03:30:43;;;;;;;3.50;1.63;;;;;;;9.32;73.61;96292.66;4957618;28;20078;-81
2024/03/15 03:33:11;;;;;;;5.60;2.63;;;;;;;9.33;76.19;96299.47;4957617;28;20068;-81
2024/03/15 03:35:39;;;;;;;3.50;2.45;;;;;;;9.40;75.57;96304.75;4957125;28;20047;-81
2024/03/15 03:38:07;;;;;;;2.75;2.20;;;;;;;9.47;77.15;96309.06;4958039;28;20050;-81
2024/03/15 03:40:35;;;;;;;6.25;2.45;;;;;;;9.52;74.85;96311.13;4957744;28;20054;-80
2024/03/15 03:43:03;;;;;;;2.92;2.65;;;;;;;9.47;73.46;96305.66;4957532;28;20066;-81
2024/03/15 03:45:31;;;;;;;3.58;2.03;;;;;;;9.40;73.04;96297.78;4957063;28;20404;-80
2024/03/15 03:47:58;;;;;;;2.97;2.03;;;;;;;9.37;72.88;96305.13;4958824;28;20054;-81
2024/03/15 03:50:27;;;;;;;3.65;2.40;;;;;;;9.33;72.77;96309.88;4957511;28;20055;-81
2024/03/15 03:52:55;;;;;;;2.83;2.10;;;;;;;9.35;74.93;96310.50;4959454;28;20117;-81
2024/03/15 03:55:24;;;;;;;2.90;2.10;;;;;;;9.38;73.92;96307.56;4963906;28;20049;-81
2024/03/15 03:57:54;;;;;;;4.25;2.50;;;;;;;9.36;72.97;96309.53;4963363;28;20051;-81
2024/03/15 04:00:21;;;;;;;4.10;2.22;;;;;;;9.34;72.86;96310.72;4964298;28;20051;-80
2024/03/15 04:02:50;;;;;;;5.47;2.10;;;;;;;9.32;72.66;96307.47;4960932;28;20061;-81
2024/03/15 04:05:18;;;;;;;4.75;2.40;;;;;;;9.32;72.45;96312.69;4958328;28;20051;-81
2024/03/15 04:07:46;;;;;;;4.35;2.25;;;;;;;9.32;72.36;96310.06;4957766;28;20051;-80
2024/03/15 04:10:14;;;;;;;4.90;2.08;;;;;;;9.31;72.44;96309.25;4955595;28;20419;-80
2024/03/15 04:12:42;;;;;;;6.57;2.00;;;;;;;9.30;72.18;96306.84;4956587;28;20430;-80
2024/03/15 04:15:11;;;;;;;2.42;2.05;;;;;;;9.28;72.20;96314.81;4957359;28;20054;-80
2024/03/15 04:17:57;;;;;;;3.08;2.47;;;;;;;9.25;72.19;96316.00;4959034;28;20059;-80
2024/03/15 04:20:26;;;;;;;4.80;2.33;;;;;;;9.24;72.38;96318.78;4957655;28;20054;-79
2024/03/15 04:22:55;;;;;;;2.95;2.30;;;;;;;9.22;72.19;96318.16;4956881;28;20055;-80
2024/03/15 04:25:25;;;;;;;4.95;2.00;;;;;;;9.21;72.19;96316.53;4956397;28;20102;-79
2024/03/15 04:27:54;;;;;;;2.70;1.83;;;;;;;9.19;72.17;96318.50;4956666;28;20047;-80
2024/03/15 04:30:22;;;;;;;3.67;2.35;;;;;;;9.18;72.22;96322.91;4958800;28;20403;-80
2024/03/15 04:32:51;;;;;;;6.78;2.13;;;;;;;9.17;72.05;96323.09;4960621;28;20139;-80
2024/03/15 04:35:19;;;;;;;5.72;2.60;;;;;;;9.17;72.17;96325.69;4960804;28;20050;-80
2024/03/15 04:37:47;;;;;;;3.20;2.60;;;;;;;9.19;71.99;96326.31;4960332;28;20058;-80
2024/03/15 04:40:14;;;;;;;3.30;2.38;;;;;;;9.20;72.22;96326.13;4960633;28;20055;-79
2024/03/15 04:42:43;;;;;;;2.25;2.00;;;;;;;9.23;71.93;96322.38;4960251;28;20422;-79
2024/03/15 04:45:14;;;;;;;3.75;2.38;;;;;;;9.22;71.86;96323.34;4960171;28;20133;-79
2024/03/15 04:47:42;;;;;;;1.83;1.73;;;;;;;9.26;73.85;96319.41;4961599;28;20057;-80
2024/03/15 04:50:10;;;;;;;2.30;2.10;;;;;;;9.30;73.86;96318.06;4960445;28;20051;-80
2024/03/15 04:52:39;;;;;;;2.92;2.30;;;;;;;9.31;72.69;96317.06;4983359;28;20047;-80
2024/03/15 04:55:09;;;;;;;2.85;2.40;;;;;;;9.29;72.59;96308.63;4983706;28;20066;-80
2024/03/15 04:57:38;;;;;;;4.78;2.83;;;;;;;9.30;73.15;96310.25;4971417;28;20109;-80
2024/03/15 05:00:17;;;;;;;5.53;2.85;;;;;;;9.31;72.66;96316.25;4961487;28;20050;-80
2024/03/15 05:02:47;;;;;;;3.55;2.42;;;;;;;9.28;72.40;96317.44;4962184;28;20047;-80
2024/03/15 05:05:16;;;;;;;4.07;2.45;;;;;;;9.29;72.25;96313.81;4960289;28;20070;-80
2024/03/15 05:07:46;;;;;;;3.33;2.30;;;;;;;9.32;73.57;96312.69;4960138;28;20050;-80
2024/03/15 05:10:15;;;;;;;4.35;2.50;;;;;;;9.33;73.95;96315.09;4960804;28;20109;-80
2024/03/15 05:12:44;;;;;;;2.65;2.10;;;;;;;9.34;73.74;96311.50;4960264;28;20109;-80
2024/03/15 05:15:13;;;;;;;3.65;2.25;;;;;;;9.35;72.96;96315.72;4960113;28;20517;-80
2024/03/15 05:17:41;;;;;;;3.17;2.15;;;;;;;9.35;72.43;96318.31;4959729;28;20054;-80
2024/03/15 05:20:12;;;;;;;2.90;2.15;;;;;;;9.36;72.28;96308.69;4959764;28;20450;-80
2024/03/15 05:22:40;;;;;;;3.78;2.33;;;;;;;9.37;71.98;96310.34;4961718;28;20058;-80
2024/03/15 05:25:08;;;;;;;3.95;2.65;;;;;;;9.36;71.52;96309.53;4956350;28;20043;-80
2024/03/15 05:27:54;;;;;;;3.42;2.35;;;;;;;9.35;71.58;96310.50;4936264;28;20055;-81
2024/03/15 05:30:28;;;;;;;2.20;2.00;;;;;;;9.34;71.46;96311.50;4963115;28;20062;-81
2024/03/15 05:32:56;;;;;;;3.35;2.00;;;;;;;9.33;71.81;96312.47;4951225;28;20458;-80
2024/03/15 05:35:25;;;;;;;2.63;2.10;;;;;;;9.36;71.54;96319.13;4944628;28;20499;-80
2024/03/15 05:37:53;;;;;;;3.88;2.50;;;;;;;9.35;71.48;96318.31;4962088;28;20102;-81
2024/03/15 05:40:23;;;;;;;5.55;2.75;;;;;;;9.36;71.31;96313.91;4930920;29;20138;-81
2024/03/15 05:43:01;;;;;;;2.42;1.90;;;;;;;9.36;71.29;96314.75;4931717;29;20154;-80
2024/03/15 05:45:29;;;;;;;4.57;2.20;;;;;;;9.39;71.30;96329.19;4925214;29;20051;-79
2024/03/15 05:52:00;;;;;;;4.50;2.20;;;;;;;9.42;71.16;96318.41;4984082;28;20050;-82
2024/03/15 05:58:17;;;;;;;8.18;3.00;;;;;;;9.43;71.34;96339.06;4957857;28;20066;-81
2024/03/15 06:01:38;;;;;;;3.78;2.10;;;;;;;9.47;70.72;96344.72;4973212;28;20058;-81
2024/03/15 06:11:00;;;;;;;4.68;2.25;;;;;;;9.35;70.56;96354.75;4966891;28;20081;-81
2024/03/15 06:23:15;;;;;;;6.18;2.75;;;;;;;9.38;70.61;96364.00;5001775;28;20054;-81
2024/03/15 06:36:16;;;;;;;7.38;3.25;;;;;;;9.47;70.53;96370.75;5030066;23;20058;-81
2024/03/15 06:38:53;;;;;;;3.47;2.25;;;;;;;9.49;70.49;96372.19;4978327;28;20054;-81
2024/03/15 06:41:37;;;;;;;5.22;2.65;;;;;;;9.52;70.45;96370.22;4979117;28;20145;-81
2024/03/15 06:44:19;;;;;;;4.40;2.20;;;;;;;9.55;70.46;96381.06;4980547;28;20129;-79
2024/03/15 06:47:04;;;;;;;7.20;2.28;;;;;;;9.59;70.43;96386.72;4960479;28;20050;-79
2024/03/15 06:49:47;;;;;;;5.50;2.50;;;;;;;9.63;70.58;96383.56;4961091;28;20062;-79
2024/03/15 06:52:34;;;;;;;4.25;2.50;;;;;;;9.71;71.36;96380.06;4960687;28;20055;-79
2024/03/15 06:55:03;;;;;;;4.10;2.33;;;;;;;9.77;70.50;96389.75;4961121;28;20052;-79
2024/03/15 06:57:32;;;;;;;3.72;2.42;;;;;;;9.81;70.40;96398.81;4958436;28;20187;-79
2024/03/15 07:00:02;;;;;;;3.83;2.17;;;;;;;9.82;70.31;96387.41;4958717;28;20054;-79
2024/03/15 07:02:30;;;;;;;4.03;2.22;;;;;;;9.86;70.96;96393.06;4958450;28;20082;-79
2024/03/15 07:04:58;;;;;;;3.13;2.55;;;;;;;9.92;71.73;96392.34;4958280;28;20499;-79
2024/03/15 07:07:26;;;;;;;5.57;3.40;;;;;;;9.98;71.38;96401.22;4958344;28;20093;-79
2024/03/15 07:09:54;;;;;;;5.45;3.10;;;;;;;10.00;70.50;96394.84;4958616;28;20081;-80
2024/03/15 07:12:22;;;;;;;6.53;3.90;;;;;;;10.03;69.77;96391.06;4958696;28;20051;-79
2024/03/15 07:14:50;;;;;;;6.28;3.47;;;;;;;10.09;71.28;96395.53;4958122;28;20429;-79
2024/03/15 07:17:22;;;;;;;5.60;3.33;;;;;;;10.12;70.29;96392.56;4958575;28;20074;-79
2024/03/15 07:19:50;;;;;;;6.80;2.67;;;;;;;10.17;69.93;96384.22;4957865;28;20109;-79
2024/03/15 07:22:19;;;;;;;3.85;2.63;;;;;;;10.24;70.33;96385.09;4957202;28;20574;-79
2024/03/15 07:24:48;;;;;;;5.57;2.95;;;;;;;10.35;69.67;96391.66;4957712;28;20082;-79
2024/03/15 07:27:16;;;;;;;4.13;2.72;;;;;;;10.44;69.19;96396.53;4957814;28;20440;-79
2024/03/15 07:29:45;;;;;;;3.80;2.45;;;;;;;10.50;68.90;96393.19;4958175;28;20086;-79
2024/03/15 07:32:13;;;;;;;3.60;2.40;;;;;;;10.60;68.67;96395.47;4958159;28;20050;-79
2024/03/15 07:34:40;;;;;;;4.28;2.78;;;;;;;10.73;70.33;96397.41;4957694;28;20050;-80
2024/03/15 07:37:08;;;;;;;3.85;2.20;;;;;;;10.90;69.60;96400.56;4957875;28;20574;-79
2024/03/15 07:39:36;;;;;;;4.53;3.03;;;;;;;11.07;68.89;96407.13;4958040;28;20055;-80
2024/03/15 07:42:04;;;;;;;6.32;3.35;;;;;;;11.23;67.95;96406.03;4958262;28;20050;-79
2024/03/15 07:44:32;;;;;;;6.55;2.83;;;;;;;11.41;67.67;96408.16;4957441;28;20050;-79
2024/03/15 07:47:01;;;;;;;8.13;2.92;;;;;;;11.58;67.53;96398.22;4958056;28;20097;-79
2024/03/15 07:49:29;;;;;;;6.55;2.90;;;;;;;11.77;67.12;96401.94;4958318;28;20050;-79
2024/03/15 07:51:57;;;;;;;6.68;3.35;;;;;;;11.93;66.37;96401.63;4957965;28;20097;-79
2024/03/15 07:54:25;;;;;;;4.03;2.22;;;;;;;12.13;65.51;96400.91;4957908;28;20133;-79
2024/03/15 07:56:53;;;;;;;6.45;2.78;;;;;;;12.32;64.90;96394.91;4957772;28;20050;-79
2024/03/15 07:59:22;;;;;;;6.15;2.80;;;;;;;12.59;65.92;96410.66;4957837;28;20093;-79
2024/03/15 08:01:50;;;;;;;6.00;3.20;;;;;;;12.83;63.40;96408.50;4957787;28;20089;-79
2024/03/15 08:04:18;;;;;;;4.97;2.45;;;;;;;13.06;62.64;96419.38;4956777;28;20057;-81
2024/03/15 08:06:46;;;;;;;6.60;3.47;;;;;;;13.35;61.53;96420.00;4956528;28;20047;-81
2024/03/15 08:09:15;;;;;;;5.43;3.53;;;;;;;13.58;60.44;96420.38;4956694;28;20078;-81
2024/03/15 08:11:43;;;;;;;7.68;2.92;;;;;;;13.84;59.99;96421.31;4957092;28;20058;-79
2024/03/15 08:14:13;;;;;;;6.38;3.13;;;;;;;14.08;58.63;96416.38;4957713;28;20065;-79
2024/03/15 08:16:41;;;;;;;3.95;3.00;;;;;;;14.31;58.96;96419.28;4957816;28;20511;-79
2024/03/15 08:19:11;;;;;;;3.17;2.80;;;;;;;14.55;59.41;96423.03;4958369;28;20175;-79
2024/03/15 08:21:39;;;;;;;4.30;3.08;;;;;;;14.95;60.79;96419.34;4957465;28;20133;-80
2024/03/15 08:24:09;;;;;;;8.65;3.28;;;;;;;15.46;56.19;96413.06;4957551;28;20570;-79
2024/03/15 08:26:39;;;;;;;6.90;3.05;;;;;;;15.93;53.96;96416.03;4957449;28;20054;-79
2024/03/15 08:29:08;;;;;;;8.38;3.60;;;;;;;16.50;52.07;96420.19;4957477;28;20051;-79
2024/03/15 08:31:38;;;;;;;5.45;3.33;;;;;;;16.96;50.75;96422.19;4963192;28;20054;-79
2024/03/15 08:34:07;;;;;;;5.38;2.95;;;;;;;17.37;49.81;96420.50;4978322;28;20051;-79
2024/03/15 08:36:36;;;;;;;3.67;2.92;;;;;;;17.81;50.19;96430.69;4977189;28;20050;-80
2024/03/15 08:39:10;;;;;;;4.47;3.00;;;;;;;18.20;48.23;96428.34;4968289;28;20047;-79
2024/03/15 08:41:38;;;;;;;6.05;2.20;;;;;;;18.52;47.20;96437.44;4958815;28;20134;-79
2024/03/15 08:44:07;;;;;;;2.80;2.03;;;;;;;18.85;46.65;96435.94;4957734;28;20055;-80
2024/03/15 08:46:35;;;;;;;4.97;2.30;;;;;;;19.08;46.16;96434.19;4957528;28;20055;-80
2024/03/15 08:49:03;;;;;;;4.15;2.10;;;;;;;19.19;48.42;96440.44;4957783;28;20083;-79
2024/03/15 08:51:32;;;;;;;3.20;1.70;;;;;;;19.22;47.99;96432.84;4957479;28;20069;-79
2024/03/15 08:54:00;;;;;;;2.25;1.67;;;;;;;19.13;48.14;96436.91;4957121;28;20082;-79
2024/03/15 08:56:30;;;;;;;2.92;1.88;;;;;;;19.02;48.88;96435.13;4957765;28;20055;-80
2024/03/15 08:58:58;;;;;;;1.98;1.52;;;;;;;18.84;48.45;96436.16;4957320;28;20117;-80
2024/03/15 09:01:32;;;;;;;2.15;1.95;;;;;;;18.74;48.65;96439.41;4957337;28;20055;-80
2024/03/15 09:04:01;;;;;;;2.33;1.67;;;;;;;18.73;48.42;96432.50;4958267;28;20133;-79
2024/03/15 09:06:29;;;;;;;2.10;1.90;;;;;;;18.77;49.71;96433.63;4957897;28;20510;-80
2024/03/15 09:08:57;;;;;;;3.70;1.70;;;;;;;18.85;48.81;96430.63;4957841;28;20408;-80
2024/03/15 09:11:25;;;;;;;3.47;1.45;;;;;;;18.96;47.13;96436.09;4957488;28;20047;-78
2024/03/15 09:13:56;;;;;;;2.45;1.63;;;;;;;19.05;46.12;96432.03;4957705;28;20109;-79
2024/03/15 09:16:24;;;;;;;2.33;1.50;;;;;;;19.19;46.77;96435.94;4959794;28;20120;-79
2024/03/15 09:18:52;;;;;;;2.08;1.70;;;;;;;19.40;46.37;96437.06;4960939;28;20070;-79
2024/03/15 09:21:20;;;;;;;2.50;1.50;;;;;;;19.68;46.56;96443.31;4960612;28;20054;-79
2024/03/15 09:23:49;;;;;;;3.88;1.65;;;;;;;19.87;45.15;96435.88;4960891;28;20129;-80
2024/03/15 09:26:20;;;;;;;2.35;1.50;;;;;;;20.02;46.71;96437.94;4959940;28;20059;-80
2024/03/15 09:28:49;;;;;;;3.22;1.77;;;;;;;20.23;44.17;96433.72;4961240;28;20050;-79
2024/03/15 09:31:19;;;;;;;3.33;1.80;;;;;;;20.40;44.54;96434.44;4960470;28;20055;-80
2024/03/15 09:34:10;;;;;;;4.40;1.30;;;;;;;20.60;43.59;96425.09;4963697;28;20065;-80
2024/03/15 09:36:39;;;;;;;2.75;1.50;;;;;;;20.74;44.69;96429.75;4960698;28;20105;-80
2024/03/15 09:39:09;;;;;;;5.38;1.45;;;;;;;20.89;42.37;96426.47;4960511;28;20074;-80
2024/03/15 09:41:38;;;;;;;2.00;1.50;;;;;;;21.04;41.48;96425.00;4960685;28;20499;-80
2024/03/15 09:44:07;;;;;;;1.67;1.45;;;;;;;21.13;42.92;96439.41;4959530;28;20059;-80
2024/03/15 09:46:37;;;;;;;4.72;1.55;;;;;;;21.22;41.85;96429.91;4960231;28;20054;-79
2024/03/15 09:49:05;;;;;;;1.73;1.10;;;;;;;21.38;42.32;96422.84;4960090;28;20054;-80
2024/03/15 09:51:33;;;;;;;2.78;1.63;;;;;;;21.58;42.82;96425.69;4959961;28;20047;-79
2024/03/15 09:54:02;;;;;;;2.22;1.30;;;;;;;21.81;41.02;96421.81;4959532;28;20522;-80
2024/03/15 09:56:30;;;;;;;2.45;1.33;;;;;;;22.00;42.10;96427.50;4959434;28;20097;-80
2024/03/15 09:58:59;;;;;;;4.43;1.20;;;;;;;22.25;41.17;96427.91;4959939;28;20470;-80
2024/03/15 10:01:28;;;;;;;2.60;1.33;;;;;;;22.47;39.42;96422.38;4959788;28;20110;-80
2024/03/15 10:03:57;;;;;;;2.95;1.38;;;;;;;22.61;39.17;96426.16;4961957;28;20521;-80
2024/03/15 10:06:26;;;;;;;3.92;1.25;;;;;;;22.76;39.88;96426.19;4981713;28;20058;-80
2024/03/15 10:08:54;;;;;;;1.63;1.02;;;;;;;22.86;40.33;96433.38;4982827;28;20057;-80
2024/03/15 10:11:23;;;;;;;1.83;1.20;;;;;;;23.00;39.52;96423.84;4983014;28;20037;-80
2024/03/15 10:13:50;;;;;;;1.58;1.02;;;;;;;23.15;38.89;96428.34;4970445;28;20503;-80
2024/03/15 10:16:18;;;;;;;1.70;1.00;;;;;;;23.33;39.08;96411.06;4962280;28;20408;-80
2024/03/15 10:18:49;;;;;;;2.00;1.05;;;;;;;23.51;39.50;96419.56;4960291;28;20046;-80
2024/03/15 10:21:17;;;;;;;2.20;1.30;;;;;;;23.71;38.45;96414.19;4960398;28;20047;-80
2024/03/15 10:23:45;;;;;;;2.58;1.40;;;;;;;23.95;38.06;96414.41;4961540;28;20047;-80
2024/03/15 10:26:14;;;;;;;2.95;1.42;;;;;;;24.19;38.53;96417.25;4960775;28;20139;-79
2024/03/15 10:28:42;;;;;;;1.85;1.27;;;;;;;24.37;35.53;96412.38;4960194;28;20053;-79
2024/03/15 10:31:11;;;;;;;3.15;1.20;;;;;;;24.41;34.72;96429.41;4960489;28;20059;-80
2024/03/15 10:33:39;;;;;;;1.05;0.95;;;;;;;24.51;35.94;96416.06;4959937;28;20065;-80
2024/03/15 10:36:08;;;;;;;2.03;1.10;;;;;;;24.66;36.87;96417.81;4960251;28;20057;-80
2024/03/15 10:38:39;;;;;;;1.10;0.60;;;;;;;24.85;35.72;96420.66;4960765;28;20133;-80
2024/03/15 10:41:07;;;;;;;2.05;1.00;;;;;;;24.93;34.73;96412.06;4960165;28;20047;-79
2024/03/15 10:43:35;;;;;;;1.38;0.98;;;;;;;24.95;35.72;96415.25;4959678;28;20109;-79
2024/03/15 10:46:03;;;;;;;3.45;0.95;;;;;;;24.93;34.06;96428.06;4959545;28;20070;-80
2024/03/15 10:48:31;;;;;;;1.83;1.50;;;;;;;24.76;33.23;96427.66;4960005;28;20067;-79
2024/03/15 10:50:59;;;;;;;2.38;1.30;;;;;;;24.56;35.70;96421.38;4968529;28;20046;-79
2024/03/15 10:53:27;;;;;;;1.17;0.98;;;;;;;24.51;35.54;96415.25;4959524;28;20058;-80
2024/03/15 10:55:55;;;;;;;3.35;1.17;;;;;;;24.57;35.90;96406.94;4958834;28;20058;-80
2024/03/15 10:58:23;;;;;;;1.35;1.20;;;;;;;24.66;35.38;96402.66;4958862;28;20050;-80
2024/03/15 11:00:51;;;;;;;2.30;1.13;;;;;;;24.89;35.96;96408.34;4958918;28;20061;-80
2024/03/15 11:03:24;;;;;;;5.13;1.15;;;;;;;25.04;33.81;96402.91;4959113;28;20054;-80
2024/03/15 11:05:52;;;;;;;2.05;1.30;;;;;;;25.11;34.30;96396.44;4959668;28;20098;-80
2024/03/15 11:08:21;;;;;;;4.18;1.20;;;;;;;25.21;33.98;96401.72;4958893;28;20053;-79
2024/03/15 11:10:55;;;;;;;1.95;1.50;;;;;;;25.41;35.83;96406.88;4959200;28;20055;-80
2024/03/15 11:13:24;;;;;;;2.65;1.20;;;;;;;25.62;34.54;96398.66;4958789;28;20443;-80
2024/03/15 11:15:55;;;;;;;1.77;1.17;;;;;;;25.72;33.04;96395.91;4958574;28;20138;-80
2024/03/15 11:18:24;;;;;;;1.95;1.30;;;;;;;25.56;33.83;96394.44;4959412;28;20046;-80
2024/03/15 11:20:52;;;;;;;1.63;1.00;;;;;;;25.25;34.26;96402.75;4958924;28;20046;-80
2024/03/15 11:23:20;;;;;;;1.67;1.13;;;;;;;25.04;34.35;96397.56;4958492;28;20053;-80
2024/03/15 11:25:55;;;;;;;1.67;1.13;;;;;;;24.78;34.67;96398.84;4957985;28;20063;-80
2024/03/15 11:28:23;;;;;;;2.35;1.20;;;;;;;24.53;35.16;96397.13;4958347;28;20074;-80
2024/03/15 11:30:51;;;;;;;1.73;1.05;;;;;;;24.23;35.30;96389.00;4958410;28;20565;-80
2024/03/15 11:33:19;;;;;;;3.45;1.40;;;;;;;24.09;34.85;96389.84;4958582;28;20043;-80
2024/03/15 11:35:48;;;;;;;2.63;1.45;;;;;;;23.93;34.29;96389.13;4957918;28;20059;-80
2024/03/15 11:38:17;;;;;;;3.08;1.63;;;;;;;23.59;34.72;96382.53;4958832;28;20114;-79
2024/03/15 11:40:45;;;;;;;5.85;2.70;;;;;;;23.24;36.41;96388.69;4957964;28;20058;-80
2024/03/15 11:43:13;;;;;;;2.78;1.73;;;;;;;22.85;36.26;96391.88;4958574;28;20446;-80
2024/03/15 11:45:42;;;;;;;5.03;3.30;;;;;;;22.40;36.89;96412.78;4957841;28;20146;-79
2024/03/15 11:48:14;;;;;;;5.80;1.40;;;;;;;21.89;41.37;96439.16;4974310;28;20048;-82
2024/03/15 11:50:44;;;;;;;1.90;1.17;;;;;;;21.22;43.55;96442.38;4980902;28;20038;-79
2024/03/15 11:53:13;;;;;;;9.18;1.92;;;;;;;20.85;44.92;96424.56;4967521;28;20047;-79
2024/03/15 11:55:41;;;;;;;3.08;1.70;;;;;;;20.63;46.58;96428.06;4958841;28;20054;-79
2024/03/15 11:58:11;;;;;;;2.97;1.58;;;;;;;20.36;47.30;96433.31;4958237;28;20054;-79
2024/03/15 12:00:39;;;;;;;3.40;1.98;;;;;;;20.11;48.07;96447.06;4958469;28;20141;-79
2024/03/15 12:03:08;;;;;;;3.25;1.63;;;;;;;19.88;48.64;96446.25;4958160;28;20517;-79
2024/03/15 12:05:41;;;;;;;3.08;1.20;;;;;;;19.62;50.20;96450.34;4957933;28;20051;-79
2024/03/15 12:08:13;;;;;;;3.15;1.58;;;;;;;19.39;50.61;96456.59;4958154;28;20050;-81
2024/03/15 12:10:41;;;;;;;2.28;1.10;;;;;;;19.22;50.70;96451.34;4959869;28;20105;-81
2024/03/15 12:13:16;;;;;;;2.58;1.55;;;;;;;19.00;51.41;96463.63;4957443;28;20133;-81
2024/03/15 12:15:44;;;;;;;4.80;1.73;;;;;;;18.84;52.76;96454.66;4956864;28;20141;-81
2024/03/15 12:18:13;;;;;;;4.28;2.08;;;;;;;18.81;53.64;96444.56;4957190;28;20082;-81
2024/03/15 12:20:41;;;;;;;2.65;2.40;;;;;;;18.78;53.23;96435.25;4957157;28;20047;-81
2024/03/15 12:23:10;;;;;;;3.78;1.92;;;;;;;18.67;53.85;96449.28;4957047;28;20097;-81
2024/03/15 12:25:38;;;;;;;1.92;1.30;;;;;;;18.57;53.49;96443.84;4956750;28;20050;-81